createdAt,value
2017-01-24T00:00:59.410Z,0
2017-01-24T00:01:59.328Z,0
2017-01-24T00:02:58.501Z,0
2017-01-24T00:03:58.078Z,0
2017-01-24T00:04:58.872Z,0
2017-01-24T00:05:58.431Z,0
2017-01-24T00:06:59.192Z,0
2017-01-24T00:07:59.218Z,0
2017-01-24T00:08:58.738Z,0
2017-01-24T00:09:58.718Z,0
2017-01-24T00:10:59.131Z,0
2017-01-24T00:11:59.055Z,0
2017-01-24T00:12:58.672Z,0
2017-01-24T00:13:58.593Z,0
2017-01-24T00:14:58.170Z,0
2017-01-24T00:15:58.542Z,0
2017-01-24T00:16:58.121Z,0
2017-01-24T00:17:58.483Z,0
2017-01-24T00:18:58.857Z,0
2017-01-24T00:19:58.444Z,0
2017-01-24T00:20:58.815Z,0
2017-01-24T00:21:58.775Z,0
2017-01-24T00:22:58.762Z,0
2017-01-24T00:23:58.720Z,0
2017-01-24T00:24:58.691Z,0
2017-01-24T00:25:58.690Z,0
2017-01-24T00:26:58.239Z,0
2017-01-24T00:27:58.615Z,0
2017-01-24T00:28:58.595Z,0
2017-01-24T00:29:57.762Z,0
2017-01-24T00:30:58.176Z,0
2017-01-24T00:31:58.094Z,0
2017-01-24T00:32:58.074Z,0
2017-01-24T00:33:58.041Z,0
2017-01-24T00:34:58.016Z,0
2017-01-24T00:35:57.993Z,0
2017-01-24T00:36:57.963Z,0
2017-01-24T00:37:57.953Z,0
2017-01-24T00:38:58.304Z,0
2017-01-24T00:39:58.283Z,0
2017-01-24T00:40:58.263Z,0
2017-01-24T00:41:57.857Z,0
2017-01-24T00:42:58.204Z,0
2017-01-24T00:43:58.160Z,0
2017-01-24T00:44:57.769Z,0
2017-01-24T00:45:57.714Z,0
2017-01-24T00:46:57.687Z,0
2017-01-24T00:47:58.060Z,0
2017-01-24T00:48:57.247Z,0
2017-01-24T00:49:58.002Z,0
2017-01-24T00:50:57.581Z,0
2017-01-24T00:51:57.543Z,0
2017-01-24T00:52:57.523Z,0
2017-01-24T00:53:58.210Z,0
2017-01-24T00:54:57.866Z,0
2017-01-24T00:55:57.845Z,0
2017-01-24T00:56:57.413Z,0
2017-01-24T00:57:57.786Z,0
2017-01-24T00:58:57.810Z,0
2017-01-24T00:59:57.321Z,0
2017-01-24T01:00:56.560Z,0
2017-01-24T01:01:57.678Z,0
2017-01-24T01:02:57.491Z,0
2017-01-24T01:03:57.516Z,0
2017-01-24T01:04:57.591Z,0
2017-01-24T01:05:57.563Z,0
2017-01-24T01:06:57.535Z,0
2017-01-24T01:07:57.509Z,0
2017-01-24T01:08:57.474Z,0
2017-01-24T01:09:57.879Z,0
2017-01-24T01:10:57.448Z,0
2017-01-24T01:11:57.398Z,0
2017-01-24T01:12:57.371Z,0
2017-01-24T01:13:56.946Z,0
2017-01-24T01:14:56.911Z,0
2017-01-24T01:15:57.280Z,0
2017-01-24T01:16:57.256Z,0
2017-01-24T01:17:56.833Z,0
2017-01-24T01:18:56.823Z,0
2017-01-24T01:19:56.780Z,0
2017-01-24T01:20:57.138Z,0
2017-01-24T01:21:57.116Z,0
2017-01-24T01:22:57.086Z,0
2017-01-24T01:23:56.664Z,0
2017-01-24T01:24:57.040Z,0
2017-01-24T01:25:56.607Z,0
2017-01-24T01:26:56.985Z,0
2017-01-24T01:27:56.957Z,0
2017-01-24T01:28:56.920Z,0
2017-01-24T01:29:56.542Z,0
2017-01-24T01:30:56.528Z,0
2017-01-24T01:31:56.836Z,0
2017-01-24T01:32:56.826Z,0
2017-01-24T01:33:56.786Z,0
2017-01-24T01:34:56.362Z,0
2017-01-24T01:35:56.773Z,0
2017-01-24T01:36:57.303Z,0
2017-01-24T01:37:56.687Z,0
2017-01-24T01:38:56.647Z,0
2017-01-24T01:39:56.610Z,0
2017-01-24T01:40:56.591Z,0
2017-01-24T01:41:56.218Z,0
2017-01-24T01:42:56.535Z,0
2017-01-24T01:43:56.140Z,0
2017-01-24T01:44:56.491Z,0
2017-01-24T01:45:56.450Z,0
2017-01-24T01:46:55.624Z,0
2017-01-24T01:47:56.003Z,0
2017-01-24T01:48:56.423Z,0
2017-01-24T01:49:55.547Z,0
2017-01-24T01:50:55.914Z,0
2017-01-24T01:51:55.087Z,0
2017-01-24T01:52:56.260Z,0
2017-01-24T01:53:55.830Z,0
2017-01-24T01:54:56.204Z,0
2017-01-24T01:55:56.174Z,0
2017-01-24T01:56:56.185Z,0
2017-01-24T01:57:56.131Z,0
2017-01-24T01:58:55.698Z,0
2017-01-24T01:59:55.676Z,0
2017-01-24T02:00:56.036Z,0
2017-01-24T02:01:55.805Z,0
2017-01-24T02:02:55.632Z,0
2017-01-24T02:03:55.963Z,0
2017-01-24T02:04:55.931Z,0
2017-01-24T02:05:55.500Z,0
2017-01-24T02:06:55.873Z,0
2017-01-24T02:07:55.450Z,0
2017-01-24T02:08:55.821Z,0
2017-01-24T02:09:55.790Z,0
2017-01-24T02:10:55.361Z,0
2017-01-24T02:11:55.732Z,0
2017-01-24T02:12:55.703Z,0
2017-01-24T02:13:55.289Z,0
2017-01-24T02:14:55.658Z,0
2017-01-24T02:15:55.675Z,0
2017-01-24T02:16:54.798Z,0
2017-01-24T02:17:55.580Z,0
2017-01-24T02:18:55.135Z,0
2017-01-24T02:19:55.108Z,0
2017-01-24T02:20:55.478Z,0
2017-01-24T02:21:55.053Z,0
2017-01-24T02:22:55.493Z,0
2017-01-24T02:23:55.411Z,0
2017-01-24T02:24:54.975Z,0
2017-01-24T02:25:55.352Z,0
2017-01-24T02:26:55.319Z,0
2017-01-24T02:27:55.298Z,0
2017-01-24T02:28:54.868Z,0
2017-01-24T02:29:54.840Z,0
2017-01-24T02:30:55.205Z,0
2017-01-24T02:31:55.183Z,0
2017-01-24T02:32:55.159Z,0
2017-01-24T02:33:54.732Z,0
2017-01-24T02:34:55.097Z,0
2017-01-24T02:35:55.077Z,0
2017-01-24T02:36:55.038Z,0
2017-01-24T02:37:55.010Z,0
2017-01-24T02:38:54.996Z,0
2017-01-24T02:39:54.565Z,0
2017-01-24T02:40:54.928Z,0
2017-01-24T02:41:54.505Z,0
2017-01-24T02:42:54.527Z,0
2017-01-24T02:43:54.104Z,0
2017-01-24T02:44:54.814Z,0
2017-01-24T02:45:54.392Z,0
2017-01-24T02:46:54.765Z,0
2017-01-24T02:47:54.344Z,0
2017-01-24T02:48:54.322Z,0
2017-01-24T02:49:54.296Z,0
2017-01-24T02:50:54.257Z,0
2017-01-24T02:51:54.632Z,0
2017-01-24T02:52:54.201Z,0
2017-01-24T02:53:54.575Z,0
2017-01-24T02:54:54.150Z,0
2017-01-24T02:55:54.125Z,0
2017-01-24T02:56:54.494Z,0
2017-01-24T02:57:54.463Z,0
2017-01-24T02:58:54.032Z,0
2017-01-24T02:59:54.059Z,0
2017-01-24T03:00:53.977Z,0
2017-01-24T03:01:54.351Z,0
2017-01-24T03:02:54.325Z,0
2017-01-24T03:03:54.294Z,0
2017-01-24T03:04:54.273Z,0
2017-01-24T03:05:53.841Z,0
2017-01-24T03:06:53.811Z,0
2017-01-24T03:07:53.385Z,0
2017-01-24T03:08:54.185Z,0
2017-01-24T03:09:53.783Z,0
2017-01-24T03:10:54.099Z,0
2017-01-24T03:11:53.269Z,0
2017-01-24T03:12:53.638Z,0
2017-01-24T03:13:53.618Z,0
2017-01-24T03:14:53.192Z,0
2017-01-24T03:15:53.963Z,0
2017-01-24T03:16:53.534Z,0
2017-01-24T03:17:53.501Z,0
2017-01-24T03:18:53.886Z,0
2017-01-24T03:19:53.459Z,0
2017-01-24T03:20:53.821Z,0
2017-01-24T03:21:53.794Z,0
2017-01-24T03:22:53.777Z,0
2017-01-24T03:23:52.942Z,0
2017-01-24T03:24:53.324Z,0
2017-01-24T03:25:53.287Z,0
2017-01-24T03:26:53.658Z,0
2017-01-24T03:27:53.626Z,0
2017-01-24T03:28:53.196Z,0
2017-01-24T03:29:53.571Z,0
2017-01-24T03:30:53.560Z,0
2017-01-24T03:31:53.525Z,0
2017-01-24T03:32:53.500Z,0
2017-01-24T03:33:53.074Z,0
2017-01-24T03:34:53.431Z,0
2017-01-24T03:35:53.412Z,0
2017-01-24T03:36:52.586Z,0
2017-01-24T03:37:53.348Z,0
2017-01-24T03:38:53.324Z,0
2017-01-24T03:39:52.906Z,0
2017-01-24T03:40:52.871Z,0
2017-01-24T03:41:53.246Z,0
2017-01-24T03:42:53.213Z,0
2017-01-24T03:43:52.443Z,0
2017-01-24T03:44:53.156Z,0
2017-01-24T03:45:52.738Z,0
2017-01-24T03:46:53.098Z,0
2017-01-24T03:47:52.675Z,0
2017-01-24T03:48:53.071Z,0
2017-01-24T03:49:52.626Z,0
2017-01-24T03:50:52.597Z,0
2017-01-24T03:51:52.566Z,0
2017-01-24T03:52:52.945Z,0
2017-01-24T03:53:52.906Z,0
2017-01-24T03:54:52.086Z,0
2017-01-24T03:55:52.483Z,0
2017-01-24T03:56:52.477Z,0
2017-01-24T03:57:52.403Z,0
2017-01-24T03:58:52.373Z,0
2017-01-24T03:59:52.351Z,0
2017-01-24T04:00:52.393Z,0
2017-01-24T04:01:51.951Z,0
2017-01-24T04:02:51.871Z,0
2017-01-24T04:03:52.644Z,0
2017-01-24T04:04:52.221Z,0
2017-01-24T04:05:52.583Z,0
2017-01-24T04:06:52.561Z,0
2017-01-24T04:07:52.135Z,0
2017-01-24T04:08:52.102Z,0
2017-01-24T04:09:52.470Z,0
2017-01-24T04:10:52.041Z,0
2017-01-24T04:11:52.437Z,0
2017-01-24T04:12:52.439Z,0
2017-01-24T04:13:52.357Z,0
2017-01-24T04:14:52.334Z,0
2017-01-24T04:15:51.909Z,0
2017-01-24T04:16:52.280Z,0
2017-01-24T04:17:51.905Z,0
2017-01-24T04:18:52.226Z,0
2017-01-24T04:19:52.210Z,0
2017-01-24T04:20:51.772Z,0
2017-01-24T04:21:52.140Z,0
2017-01-24T04:22:52.116Z,0
2017-01-24T04:23:52.087Z,0
2017-01-24T04:24:52.115Z,0
2017-01-24T04:25:51.634Z,0
2017-01-24T04:26:52.048Z,0
2017-01-24T04:27:51.977Z,0
2017-01-24T04:28:51.547Z,0
2017-01-24T04:29:51.945Z,0
2017-01-24T04:30:51.894Z,0
2017-01-24T04:31:51.064Z,0
2017-01-24T04:32:51.491Z,0
2017-01-24T04:33:51.812Z,0
2017-01-24T04:34:51.785Z,0
2017-01-24T04:35:51.381Z,0
2017-01-24T04:36:51.735Z,0
2017-01-24T04:37:51.298Z,0
2017-01-24T04:38:51.721Z,0
2017-01-24T04:39:51.245Z,0
2017-01-24T04:40:51.619Z,0
2017-01-24T04:41:51.198Z,0
2017-01-24T04:42:51.573Z,0
2017-01-24T04:43:51.533Z,0
2017-01-24T04:44:51.106Z,0
2017-01-24T04:45:51.084Z,0
2017-01-24T04:46:51.453Z,0
2017-01-24T04:47:51.054Z,0
2017-01-24T04:48:51.461Z,0
2017-01-24T04:49:50.979Z,0
2017-01-24T04:50:50.548Z,0
2017-01-24T04:51:51.348Z,0
2017-01-24T04:52:50.497Z,0
2017-01-24T04:53:50.860Z,0
2017-01-24T04:54:51.235Z,0
2017-01-24T04:55:50.015Z,0
2017-01-24T04:56:50.785Z,0
2017-01-24T04:57:51.154Z,0
2017-01-24T04:58:50.627Z,0
2017-01-24T04:59:51.100Z,0
2017-01-24T05:00:50.671Z,0
2017-01-24T05:01:51.052Z,0
2017-01-24T05:02:51.020Z,0
2017-01-24T05:03:50.616Z,0
2017-01-24T05:04:50.570Z,0
2017-01-24T05:05:50.938Z,0
2017-01-24T05:06:50.509Z,0
2017-01-24T05:07:50.484Z,0
2017-01-24T05:08:50.864Z,0
2017-01-24T05:09:50.829Z,0
2017-01-24T05:10:50.865Z,0
2017-01-24T05:11:50.781Z,0
2017-01-24T05:12:50.751Z,0
2017-01-24T05:13:50.719Z,0
2017-01-24T05:14:50.692Z,0
2017-01-24T05:15:50.263Z,0
2017-01-24T05:16:50.232Z,0
2017-01-24T05:17:50.606Z,0
2017-01-24T05:18:50.580Z,0
2017-01-24T05:19:50.156Z,0
2017-01-24T05:20:50.535Z,0
2017-01-24T05:21:49.706Z,0
2017-01-24T05:22:50.534Z,0
2017-01-24T05:23:50.442Z,0
2017-01-24T05:24:50.021Z,0
2017-01-24T05:25:49.981Z,0
2017-01-24T05:26:50.381Z,0
2017-01-24T05:27:49.948Z,0
2017-01-24T05:28:50.310Z,0
2017-01-24T05:29:50.332Z,0
2017-01-24T05:30:49.856Z,0
2017-01-24T05:31:50.234Z,0
2017-01-24T05:32:50.253Z,0
2017-01-24T05:33:49.769Z,0
2017-01-24T05:34:50.444Z,0
2017-01-24T05:35:50.115Z,0
2017-01-24T05:36:50.146Z,0
2017-01-24T05:37:50.068Z,0
2017-01-24T05:38:50.031Z,0
2017-01-24T05:39:50.007Z,0
2017-01-24T05:40:49.979Z,0
2017-01-24T05:41:49.949Z,0
2017-01-24T05:42:49.128Z,0
2017-01-24T05:43:49.895Z,0
2017-01-24T05:44:49.868Z,0
2017-01-24T05:45:49.444Z,0
2017-01-24T05:46:49.811Z,0
2017-01-24T05:47:49.797Z,0
2017-01-24T05:48:49.828Z,0
2017-01-24T05:49:49.741Z,0
2017-01-24T05:50:48.503Z,0
2017-01-24T05:51:49.672Z,0
2017-01-24T05:52:49.634Z,0
2017-01-24T05:53:49.854Z,0
2017-01-24T05:54:49.583Z,0
2017-01-24T05:55:49.210Z,0
2017-01-24T05:56:49.594Z,0
2017-01-24T05:57:49.163Z,0
2017-01-24T05:58:49.483Z,0
2017-01-24T05:59:49.669Z,0
2017-01-24T06:00:49.064Z,0
2017-01-24T06:01:49.406Z,0
2017-01-24T06:02:49.529Z,0
2017-01-24T06:03:48.945Z,0
2017-01-24T06:04:49.362Z,0
2017-01-24T06:05:49.333Z,0
2017-01-24T06:06:49.266Z,0
2017-01-24T06:07:48.484Z,0
2017-01-24T06:08:49.504Z,0
2017-01-24T06:09:49.182Z,0
2017-01-24T06:10:48.763Z,0
2017-01-24T06:11:48.732Z,0
2017-01-24T06:12:49.099Z,0
2017-01-24T06:13:48.676Z,0
2017-01-24T06:14:48.661Z,0
2017-01-24T06:15:48.616Z,0
2017-01-24T06:16:48.646Z,0
2017-01-24T06:17:48.962Z,0
2017-01-24T06:18:48.933Z,0
2017-01-24T06:19:48.861Z,0
2017-01-24T06:20:48.879Z,0
2017-01-24T06:21:48.860Z,0
2017-01-24T06:22:48.823Z,0
2017-01-24T06:23:48.805Z,0
2017-01-24T06:24:48.834Z,0
2017-01-24T06:25:48.752Z,0
2017-01-24T06:26:47.919Z,0
2017-01-24T06:27:48.302Z,0
2017-01-24T06:28:48.269Z,0
2017-01-24T06:29:48.632Z,0
2017-01-24T06:30:48.630Z,0
2017-01-24T06:31:48.226Z,0
2017-01-24T06:32:47.756Z,0
2017-01-24T06:33:48.125Z,0
2017-01-24T06:34:48.401Z,0
2017-01-24T06:35:48.466Z,0
2017-01-24T06:36:48.441Z,0
2017-01-24T06:37:48.018Z,0
2017-01-24T06:38:48.395Z,0
2017-01-24T06:39:47.966Z,0
2017-01-24T06:40:47.538Z,0
2017-01-24T06:41:48.305Z,0
2017-01-24T06:42:47.888Z,0
2017-01-24T06:43:47.857Z,0
2017-01-24T06:44:47.031Z,0
2017-01-24T06:45:48.220Z,0
2017-01-24T06:46:48.177Z,0
2017-01-24T06:47:47.746Z,0
2017-01-24T06:48:48.117Z,0
2017-01-24T06:49:47.683Z,0
2017-01-24T06:50:47.262Z,0
2017-01-24T06:51:47.637Z,0
2017-01-24T06:52:48.014Z,0
2017-01-24T06:53:47.988Z,0
2017-01-24T06:54:47.562Z,0
2017-01-24T06:55:47.128Z,0
2017-01-24T06:56:47.506Z,0
2017-01-24T06:57:47.480Z,0
2017-01-24T06:58:48.072Z,0
2017-01-24T06:59:47.813Z,0
2017-01-24T07:00:47.856Z,0
2017-01-24T07:01:47.360Z,0
2017-01-24T07:02:47.333Z,0
2017-01-24T07:03:47.315Z,0
2017-01-24T07:04:46.891Z,0
2017-01-24T07:05:47.676Z,0
2017-01-24T07:06:47.222Z,0
2017-01-24T07:07:47.201Z,0
2017-01-24T07:08:47.583Z,0
2017-01-24T07:09:47.542Z,0
2017-01-24T07:10:47.526Z,0
2017-01-24T07:11:47.512Z,0
2017-01-24T07:12:46.662Z,0
2017-01-24T07:13:47.048Z,0
2017-01-24T07:14:46.625Z,0
2017-01-24T07:15:46.581Z,0
2017-01-24T07:16:46.956Z,0
2017-01-24T07:17:46.158Z,0
2017-01-24T07:18:46.893Z,0
2017-01-24T07:19:47.026Z,0
2017-01-24T07:20:47.246Z,0
2017-01-24T07:21:47.219Z,0
2017-01-24T07:22:46.386Z,0
2017-01-24T07:23:47.172Z,0
2017-01-24T07:24:46.383Z,0
2017-01-24T07:25:47.107Z,0
2017-01-24T07:26:46.678Z,0
2017-01-24T07:27:47.048Z,0
2017-01-24T07:28:46.229Z,0
2017-01-24T07:29:47.008Z,0
2017-01-24T07:30:46.980Z,0
2017-01-24T07:31:46.548Z,0
2017-01-24T07:32:46.924Z,0
2017-01-24T07:33:47.202Z,5
2017-01-24T07:34:46.855Z,5
2017-01-24T07:35:46.433Z,5
2017-01-24T07:36:46.807Z,5
2017-01-24T07:37:45.594Z,5
2017-01-24T07:38:46.349Z,5
2017-01-24T07:39:46.721Z,5
2017-01-24T07:40:45.908Z,5
2017-01-24T07:41:46.314Z,5
2017-01-24T07:42:46.640Z,10
2017-01-24T07:43:46.229Z,10
2017-01-24T07:44:46.190Z,10
2017-01-24T07:45:46.594Z,10
2017-01-24T07:46:46.181Z,10
2017-01-24T07:47:46.111Z,10
2017-01-24T07:48:46.481Z,10
2017-01-24T07:49:46.452Z,10
2017-01-24T07:50:46.024Z,10
2017-01-24T07:51:46.403Z,15
2017-01-24T07:52:45.988Z,15
2017-01-24T07:53:45.952Z,15
2017-01-24T07:54:46.329Z,20
2017-01-24T07:55:46.329Z,20
2017-01-24T07:56:46.282Z,20
2017-01-24T07:57:46.233Z,20
2017-01-24T07:58:45.803Z,20
2017-01-24T07:59:46.174Z,20
2017-01-24T08:00:45.749Z,20
2017-01-24T08:01:45.324Z,20
2017-01-24T08:02:46.108Z,20
2017-01-24T08:03:45.268Z,25
2017-01-24T08:04:45.648Z,25
2017-01-24T08:05:46.023Z,25
2017-01-24T08:06:45.986Z,25
2017-01-24T08:07:45.965Z,25
2017-01-24T08:08:45.939Z,25
2017-01-24T08:09:45.906Z,25
2017-01-24T08:10:45.888Z,25
2017-01-24T08:11:45.852Z,25
2017-01-24T08:12:45.825Z,25
2017-01-24T08:13:45.405Z,20
2017-01-24T08:14:45.767Z,25
2017-01-24T08:15:45.751Z,25
2017-01-24T08:16:45.725Z,25
2017-01-24T08:17:45.294Z,30
2017-01-24T08:18:45.269Z,35
2017-01-24T08:19:45.642Z,35
2017-01-24T08:20:45.205Z,35
2017-01-24T08:21:45.587Z,40
2017-01-24T08:22:45.902Z,40
2017-01-24T08:23:45.532Z,40
2017-01-24T08:24:45.109Z,45
2017-01-24T08:25:45.488Z,45
2017-01-24T08:26:45.041Z,45
2017-01-24T08:27:44.629Z,45
2017-01-24T08:28:45.010Z,45
2017-01-24T08:29:45.020Z,50
2017-01-24T08:30:44.542Z,50
2017-01-24T08:31:44.520Z,50
2017-01-24T08:32:45.287Z,50
2017-01-24T08:33:45.265Z,45
2017-01-24T08:34:44.833Z,50
2017-01-24T08:35:45.200Z,50
2017-01-24T08:36:45.173Z,55
2017-01-24T08:37:45.151Z,55
2017-01-24T08:38:45.131Z,60
2017-01-24T08:39:44.699Z,60
2017-01-24T08:40:44.720Z,60
2017-01-24T08:41:45.044Z,65
2017-01-24T08:42:45.026Z,70
2017-01-24T08:43:44.987Z,75
2017-01-24T08:44:44.613Z,80
2017-01-24T08:45:44.949Z,90
2017-01-24T08:46:44.921Z,85
2017-01-24T08:47:44.883Z,80
2017-01-24T08:48:44.467Z,80
2017-01-24T08:49:44.465Z,80
2017-01-24T08:50:44.812Z,75
2017-01-24T08:51:44.785Z,80
2017-01-24T08:52:44.762Z,85
2017-01-24T08:53:44.743Z,85
2017-01-24T08:54:44.739Z,90
2017-01-24T08:55:44.680Z,90
2017-01-24T08:56:44.677Z,90
2017-01-24T08:57:44.870Z,90
2017-01-24T08:58:44.594Z,90
2017-01-24T08:59:44.072Z,85
2017-01-24T09:00:44.549Z,80
2017-01-24T09:01:44.512Z,80
2017-01-24T09:02:44.482Z,75
2017-01-24T09:03:44.485Z,70
2017-01-24T09:04:44.089Z,70
2017-01-24T09:05:44.409Z,65
2017-01-24T09:06:44.386Z,65
2017-01-24T09:07:44.361Z,65
2017-01-24T09:08:44.336Z,60
2017-01-24T09:09:44.310Z,60
2017-01-24T09:10:44.279Z,60
2017-01-24T09:11:44.308Z,60
2017-01-24T09:12:44.217Z,60
2017-01-24T09:13:44.235Z,60
2017-01-24T09:14:44.072Z,65
2017-01-24T09:15:44.139Z,70
2017-01-24T09:16:44.114Z,70
2017-01-24T09:17:44.099Z,70
2017-01-24T09:18:44.060Z,75
2017-01-24T09:19:44.031Z,75
2017-01-24T09:20:44.018Z,75
2017-01-24T09:21:43.996Z,80
2017-01-24T09:22:43.559Z,80
2017-01-24T09:23:43.935Z,80
2017-01-24T09:24:43.935Z,80
2017-01-24T09:25:43.886Z,85
2017-01-24T09:26:43.886Z,85
2017-01-24T09:27:43.824Z,85
2017-01-24T09:28:43.803Z,85
2017-01-24T09:29:43.384Z,85
2017-01-24T09:30:43.730Z,80
2017-01-24T09:31:43.748Z,80
2017-01-24T09:32:44.006Z,80
2017-01-24T09:33:43.283Z,90
2017-01-24T09:34:43.642Z,95
2017-01-24T09:35:43.219Z,95
2017-01-24T09:36:43.591Z,90
2017-01-24T09:37:43.570Z,95
2017-01-24T09:38:43.619Z,100
2017-01-24T09:39:43.517Z,110
2017-01-24T09:40:43.133Z,115
2017-01-24T09:41:43.455Z,120
2017-01-24T09:42:43.025Z,110
2017-01-24T09:43:43.406Z,105
2017-01-24T09:44:43.279Z,100
2017-01-24T09:45:42.961Z,105
2017-01-24T09:46:43.383Z,105
2017-01-24T09:47:43.312Z,105
2017-01-24T09:48:43.279Z,105
2017-01-24T09:49:43.251Z,100
2017-01-24T09:50:43.217Z,90
2017-01-24T09:51:43.249Z,85
2017-01-24T09:52:43.176Z,80
2017-01-24T09:53:43.152Z,80
2017-01-24T09:54:43.168Z,75
2017-01-24T09:55:43.102Z,70
2017-01-24T09:56:43.067Z,70
2017-01-24T09:57:43.041Z,75
2017-01-24T09:58:43.018Z,80
2017-01-24T09:59:42.999Z,85
2017-01-24T10:00:42.961Z,85
2017-01-24T10:01:42.206Z,85
2017-01-24T10:02:42.593Z,90
2017-01-24T10:03:42.901Z,90
2017-01-24T10:04:42.067Z,90
2017-01-24T10:05:42.438Z,95
2017-01-24T10:06:43.203Z,95
2017-01-24T10:07:42.858Z,90
2017-01-24T10:08:42.788Z,90
2017-01-24T10:09:42.326Z,95
2017-01-24T10:10:42.712Z,105
2017-01-24T10:11:42.281Z,100
2017-01-24T10:12:41.895Z,105
2017-01-24T10:13:42.278Z,105
2017-01-24T10:14:41.793Z,95
2017-01-24T10:15:42.574Z,85
2017-01-24T10:16:42.581Z,85
2017-01-24T10:17:41.728Z,95
2017-01-24T10:18:42.492Z,100
2017-01-24T10:19:42.066Z,90
2017-01-24T10:20:42.755Z,85
2017-01-24T10:21:41.223Z,85
2017-01-24T10:22:42.389Z,80
2017-01-24T10:23:42.381Z,80
2017-01-24T10:24:41.975Z,90
2017-01-24T10:25:42.320Z,95
2017-01-24T10:26:41.897Z,105
2017-01-24T10:27:41.519Z,110
2017-01-24T10:28:42.225Z,110
2017-01-24T10:29:41.807Z,105
2017-01-24T10:30:41.786Z,90
2017-01-24T10:31:42.158Z,85
2017-01-24T10:32:42.292Z,90
2017-01-24T10:33:41.711Z,95
2017-01-24T10:34:41.681Z,90
2017-01-24T10:35:42.111Z,85
2017-01-24T10:36:42.145Z,85
2017-01-24T10:37:41.617Z,85
2017-01-24T10:38:41.585Z,90
2017-01-24T10:39:41.562Z,85
2017-01-24T10:40:41.110Z,90
2017-01-24T10:41:41.954Z,105
2017-01-24T10:42:41.074Z,110
2017-01-24T10:43:41.850Z,120
2017-01-24T10:44:41.932Z,125
2017-01-24T10:45:41.781Z,120
2017-01-24T10:46:41.794Z,115
2017-01-24T10:47:41.368Z,110
2017-01-24T10:48:40.914Z,110
2017-01-24T10:49:41.682Z,110
2017-01-24T10:50:41.276Z,115
2017-01-24T10:51:41.343Z,120
2017-01-24T10:52:41.266Z,120
2017-01-24T10:53:41.240Z,125
2017-01-24T10:54:41.343Z,125
2017-01-24T10:55:40.734Z,120
2017-01-24T10:56:41.205Z,115
2017-01-24T10:57:41.545Z,115
2017-01-24T10:58:41.464Z,120
2017-01-24T10:59:41.423Z,130
2017-01-24T11:00:41.409Z,145
2017-01-24T11:01:41.388Z,145
2017-01-24T11:02:41.373Z,140
2017-01-24T11:03:41.324Z,130
2017-01-24T11:04:41.304Z,130
2017-01-24T11:05:40.494Z,130
2017-01-24T11:06:41.271Z,135
2017-01-24T11:07:41.224Z,140
2017-01-24T11:08:41.202Z,135
2017-01-24T11:09:40.823Z,130
2017-01-24T11:10:41.166Z,110
2017-01-24T11:11:41.116Z,105
2017-01-24T11:12:40.707Z,100
2017-01-24T11:13:40.677Z,95
2017-01-24T11:14:41.111Z,100
2017-01-24T11:15:40.612Z,100
2017-01-24T11:16:41.000Z,105
2017-01-24T11:17:40.604Z,110
2017-01-24T11:18:40.939Z,110
2017-01-24T11:19:40.564Z,105
2017-01-24T11:20:40.894Z,100
2017-01-24T11:21:40.894Z,95
2017-01-24T11:22:40.846Z,90
2017-01-24T11:23:40.817Z,85
2017-01-24T11:24:40.883Z,85
2017-01-24T11:25:41.020Z,80
2017-01-24T11:26:40.789Z,75
2017-01-24T11:27:40.700Z,75
2017-01-24T11:28:40.277Z,80
2017-01-24T11:29:40.663Z,80
2017-01-24T11:30:40.628Z,80
2017-01-24T11:31:39.409Z,80
2017-01-24T11:32:40.573Z,80
2017-01-24T11:33:40.611Z,85
2017-01-24T11:34:39.321Z,90
2017-01-24T11:35:40.094Z,95
2017-01-24T11:36:40.479Z,95
2017-01-24T11:37:40.448Z,95
2017-01-24T11:38:40.430Z,90
2017-01-24T11:39:40.051Z,90
2017-01-24T11:40:40.384Z,95
2017-01-24T11:41:40.345Z,95
2017-01-24T11:42:40.317Z,100
2017-01-24T11:43:40.299Z,105
2017-01-24T11:44:39.873Z,110
2017-01-24T11:45:40.242Z,115
2017-01-24T11:46:40.222Z,125
2017-01-24T11:47:40.491Z,145
2017-01-24T11:48:39.780Z,160
2017-01-24T11:49:39.356Z,175
2017-01-24T11:50:39.723Z,175
2017-01-24T11:51:39.296Z,165
2017-01-24T11:52:40.091Z,145
2017-01-24T11:53:39.315Z,140
2017-01-24T11:54:39.622Z,125
2017-01-24T11:55:39.983Z,120
2017-01-24T11:56:39.162Z,110
2017-01-24T11:57:39.923Z,100
2017-01-24T11:58:39.509Z,95
2017-01-24T11:59:38.694Z,95
2017-01-24T12:00:39.867Z,95
2017-01-24T12:01:39.033Z,90
2017-01-24T12:02:39.814Z,85
2017-01-24T12:03:39.395Z,80
2017-01-24T12:04:39.359Z,75
2017-01-24T12:05:39.387Z,80
2017-01-24T12:06:38.906Z,80
2017-01-24T12:07:39.285Z,80
2017-01-24T12:08:38.908Z,80
2017-01-24T12:09:39.259Z,80
2017-01-24T12:10:39.225Z,80
2017-01-24T12:11:39.238Z,75
2017-01-24T12:12:38.757Z,75
2017-01-24T12:13:38.735Z,75
2017-01-24T12:14:38.700Z,70
2017-01-24T12:15:38.683Z,70
2017-01-24T12:16:38.671Z,70
2017-01-24T12:17:39.017Z,70
2017-01-24T12:18:39.431Z,70
2017-01-24T12:19:39.371Z,70
2017-01-24T12:20:38.945Z,70
2017-01-24T12:21:38.918Z,70
2017-01-24T12:22:38.095Z,75
2017-01-24T12:23:38.911Z,75
2017-01-24T12:24:39.242Z,75
2017-01-24T12:25:38.470Z,75
2017-01-24T12:26:39.188Z,75
2017-01-24T12:27:39.153Z,75
2017-01-24T12:28:38.734Z,75
2017-01-24T12:29:39.408Z,75
2017-01-24T12:30:38.679Z,80
2017-01-24T12:31:38.260Z,80
2017-01-24T12:32:38.228Z,80
2017-01-24T12:33:39.034Z,85
2017-01-24T12:34:38.593Z,80
2017-01-24T12:35:38.203Z,80
2017-01-24T12:36:38.533Z,80
2017-01-24T12:37:38.501Z,80
2017-01-24T12:38:38.871Z,85
2017-01-24T12:39:38.450Z,85
2017-01-24T12:40:38.824Z,90
2017-01-24T12:41:38.004Z,90
2017-01-24T12:42:38.384Z,85
2017-01-24T12:43:38.800Z,85
2017-01-24T12:44:38.334Z,80
2017-01-24T12:45:38.696Z,80
2017-01-24T12:46:38.272Z,80
2017-01-24T12:47:38.638Z,80
2017-01-24T12:48:38.205Z,80
2017-01-24T12:49:38.195Z,75
2017-01-24T12:50:38.673Z,75
2017-01-24T12:51:38.537Z,70
2017-01-24T12:52:38.508Z,70
2017-01-24T12:53:38.083Z,70
2017-01-24T12:54:38.451Z,75
2017-01-24T12:55:38.442Z,75
2017-01-24T12:56:38.453Z,75
2017-01-24T12:57:38.388Z,75
2017-01-24T12:58:37.957Z,75
2017-01-24T12:59:38.221Z,75
2017-01-24T13:00:37.918Z,75
2017-01-24T13:01:38.275Z,75
2017-01-24T13:02:38.296Z,70
2017-01-24T13:03:37.832Z,70
2017-01-24T13:04:37.813Z,70
2017-01-24T13:05:37.378Z,65
2017-01-24T13:06:37.744Z,65
2017-01-24T13:07:38.130Z,65
2017-01-24T13:08:38.096Z,65
2017-01-24T13:09:37.971Z,65
2017-01-24T13:10:37.643Z,60
2017-01-24T13:11:37.624Z,60
2017-01-24T13:12:37.985Z,60
2017-01-24T13:13:37.979Z,60
2017-01-24T13:14:37.955Z,65
2017-01-24T13:15:37.959Z,65
2017-01-24T13:16:37.884Z,65
2017-01-24T13:17:37.466Z,60
2017-01-24T13:18:37.834Z,60
2017-01-24T13:19:37.455Z,60
2017-01-24T13:20:37.789Z,60
2017-01-24T13:21:37.750Z,60
2017-01-24T13:22:37.344Z,60
2017-01-24T13:23:37.701Z,60
2017-01-24T13:24:37.286Z,60
2017-01-24T13:25:37.655Z,60
2017-01-24T13:26:37.628Z,55
2017-01-24T13:27:37.597Z,55
2017-01-24T13:28:37.167Z,55
2017-01-24T13:29:36.971Z,55
2017-01-24T13:30:37.573Z,60
2017-01-24T13:31:37.134Z,60
2017-01-24T13:32:37.467Z,65
2017-01-24T13:33:37.444Z,65
2017-01-24T13:34:37.269Z,65
2017-01-24T13:35:38.097Z,65
2017-01-24T13:36:36.956Z,65
2017-01-24T13:37:36.936Z,70
2017-01-24T13:38:36.919Z,70
2017-01-24T13:39:37.280Z,70
2017-01-24T13:40:37.259Z,75
2017-01-24T13:41:36.459Z,75
2017-01-24T13:42:37.210Z,70
2017-01-24T13:43:37.189Z,65
2017-01-24T13:44:36.756Z,65
2017-01-24T13:45:37.156Z,65
2017-01-24T13:46:36.747Z,60
2017-01-24T13:47:36.734Z,60
2017-01-24T13:48:37.349Z,60
2017-01-24T13:49:36.227Z,55
2017-01-24T13:50:36.594Z,55
2017-01-24T13:51:36.970Z,50
2017-01-24T13:52:36.956Z,50
2017-01-24T13:53:36.922Z,50
2017-01-24T13:54:36.882Z,50
2017-01-24T13:55:36.478Z,50
2017-01-24T13:56:36.451Z,50
2017-01-24T13:57:36.829Z,45
2017-01-24T13:58:36.789Z,45
2017-01-24T13:59:36.810Z,45
2017-01-24T14:00:35.983Z,45
2017-01-24T14:01:36.063Z,45
2017-01-24T14:02:35.887Z,45
2017-01-24T14:03:36.248Z,45
2017-01-24T14:04:36.299Z,45
2017-01-24T14:05:36.196Z,45
2017-01-24T14:06:36.198Z,45
2017-01-24T14:07:36.157Z,45
2017-01-24T14:08:35.728Z,45
2017-01-24T14:09:36.530Z,45
2017-01-24T14:10:35.691Z,50
2017-01-24T14:11:36.064Z,50
2017-01-24T14:12:36.483Z,45
2017-01-24T14:13:36.007Z,45
2017-01-24T14:14:35.971Z,40
2017-01-24T14:15:35.530Z,40
2017-01-24T14:16:35.511Z,40
2017-01-24T14:17:36.289Z,35
2017-01-24T14:18:36.264Z,35
2017-01-24T14:19:36.049Z,35
2017-01-24T14:20:36.214Z,35
2017-01-24T14:21:36.194Z,35
2017-01-24T14:22:36.223Z,35
2017-01-24T14:23:36.136Z,35
2017-01-24T14:24:34.912Z,35
2017-01-24T14:25:36.139Z,30
2017-01-24T14:26:36.052Z,30
2017-01-24T14:27:35.628Z,30
2017-01-24T14:28:36.005Z,30
2017-01-24T14:29:35.562Z,30